Maryland AWOS List, Phone Numbers

USA |  
| Search AWOS

Rocky Mountain States: Montana | Wyoming | Colorado | New Mexico

Complete weather reports: Maryland

Legend: KFNL = METAR available Follow your local AWOS on AV Mobile = METAR available on AV Mobile
Station Maryland Location Frequency Phone
KAPGFAA ID APG, KAPG 122151Z 20004KT 7SM OVC070 M04/M12 A3005 Follow KAPG on AV Mobile Phillips Army Air Field / Aberdeen
K61WICAO ID K61W Annapolis Coast Guard Station
KNAKICAO ID KNAK, KNAK 122154Z AUTO 13009KT 10SM BKN055 OVC070 M03/M11 A3004 RMK AO2 SLP175 T10281111 Follow KNAK on AV Mobile ANNAPOLIS US NAVAL ACADEMY
KLWXICAO ID KLWX Baltimore / DC Nexrad
KDMHICAO ID KDMH, KDMH 122154Z AUTO M04/M09 A3004 RMK AO1 SLP171 T10441094 Follow KDMH on AV Mobile BALTIMORE DOWNTOWN
KMTNFAA ID MTN, AWOS-3PT, KMTN 122150Z 15004KT 5SM SCT011 OVC100 M03/M09 A3007 Follow KMTN on AV Mobile Baltimore / Martin 124.925 410-682-8848
KBWIFAA ID BWI, ASOS, KBWI 122154Z 09007KT 5SM -SN BKN035 OVC045 M04/M10 A3004 Follow KBWI on AV Mobile BALTIMORE-WASHINGTON INTERNATIONAL 410-691-1278
4MDFAA ID 4MD, Belfort PIER 7
KCGEFAA ID CGE, AWOS-3, KCGE 122159Z AUTO 16006KT 10SM CLR M03/M11 A3004 RMK AO1 Follow KCGE on AV Mobile CAMBRIDGE 120.675 410-228-7559
KADWFAA ID ADW, KADW 122158Z AUTO 15004KT 10SM FEW035 M02/M12 A3001 RMK AO2 SLP173 T10241121 Follow KADW on AV Mobile Camp Springs / Andrews Air Force Base
W32FAA ID W32, Belfort WASHINGTON EXECUTIVE/HYDE FIELD
KCGSFAA ID CGS, AWOS-3, KCGS 122200Z AUTO 23003KT 10SM BKN065 BKN120 M01/M13 A3002 RMK AO1 Follow KCGS on AV Mobile COLLEGE PARK 121.225 301-864-5497
K66WICAO ID K66W Cove Point Coast Guard Light Station
KCBEFAA ID CBE, AWOS-3, KCBE 122202Z AUTO 00000KT 1SM OVC004 M03/M06 A3002 Follow KCBE on AV Mobile Cumberland, Greater Cumberland Regional Airport 128.625 304-738-0451
KESNFAA ID ESN, AWOS-3, KESN 122050Z 20005KT 10SM BKN200 M02/M15 A3009 Follow KESN on AV Mobile Easton / Newman Field 124.475 410-822-2817
KFMEFAA ID FME, AWOS-3, KFME 122200Z AUTO 12006KT 10SM BKN037 BKN045 OVC050 M02/M11 A3006 RMK AO1 Follow KFME on AV Mobile Fort Meade / Tipton 123.925
KJWXICAO ID KJWX Fort Ritchie
KFDKFAA ID FDK, AWOS-3, KFDK 122147Z 18005KT 10SM SCT050 BKN080 M02/M11 A3003 Follow KFDK on AV Mobile Frederick, Frederick Municipal Airport 124.875 301-600-1457
KGAIFAA ID GAI, AWOS-3, KGAI 122215Z AUTO 09004KT 10SM FEW120 M03/M13 A3002 RMK AO1 Follow KGAI on AV Mobile GAITHERSBURG 128.275 301-977-2971
KHGRFAA ID HGR, ASOS, KHGR 122153Z 31004KT 10SM BKN049 OVC060 M04/M11 A2997 RMK AO2 SLP171 T10391111 Follow KHGR on AV Mobile HAGERSTOWN REGIONAL AIRPORT 126.375 301-745-3497
K2W6FAA ID 2W6, AWOS-3, K2W6 122202Z AUTO 14003KT OVC050 M02/M11 A3004 RMK AO1 Follow K2W6 on AV Mobile LEONARDTOWN 119.575 301-373-6514
K2G4FAA ID 2G4, AWOS-3, K2G4 122200Z AUTO 26005KT 1/2SM FZFG VV005 M10/M12 A2981 RMK AO1 Follow K2G4 on AV Mobile OAKLAND 120.125 301-746-8443
KW30ICAO ID KW30 Ocean City
KN80ICAO ID KN80 Ocean City, Ocean City Municipal Airport
KOXBFAA ID OXB, ASOS, KOXB 122153Z AUTO 20005KT 10SM OVC100 M03/M12 A3004 RMK AO2 SLP172 T10281117 TSNO Follow KOXB on AV Mobile OCEAN CITY MUNICIPAL AIRPORT 119.025 410-213-1530
KNHKFAA ID NHK, KNHK 122152Z 15006KT 10SM BKN055 BKN070 OVC090 M03/M11 A3003 RMK AO2 SLP170 T10281106 $ Follow KNHK on AV Mobile NAS PATUXENT RIVER MD
KSBYFAA ID SBY, ASOS, KSBY 122154Z 22005KT 10SM FEW060 BKN070 OVC090 M02/M13 A3003 Follow KSBY on AV Mobile SALISBURY-WICOMICO CTY REG 118.325 410-341-0868
KNUIFAA ID NUI, KNUI 122153Z AUTO 15005KT 10SM FEW050 BKN060 OVC070 M02/M11 A3002 RMK AO2 SLP165 T10221106 Follow KNUI on AV Mobile KNUI WEBSTER FIELD ANNEX
KW29FAA ID W29, AWOS-3, KW29 122202Z AUTO 00000KT 10SM M02/M14 A3005 RMK AO1 Follow KW29 on AV Mobile STEVENSVILLE 120.575 410-643-8795
K67WICAO ID K67W Stillpond Coast Guard Station
K65WICAO ID K65W Thomas Point Coast Guard Station
KDMWFAA ID DMW, AWOS-3, KDMW 122200Z AUTO 25003KT 10SM SCT110 M04/M09 A2997 RMK AO2 Follow KDMW on AV Mobile WESTMINSTER 121.25 410-876-1281

Click on the AV Mobile icon AV Mobile icon by any station to follow that AWOS feed on AirportView.net Mobile.

Leaders in ADS-B Avemco Insurance Company